createdAt,value
2018-07-30T00:00:38.361Z,61.59
2018-07-30T00:01:38.257Z,61.49
2018-07-30T00:03:31.600Z,60.62
2018-07-30T00:04:31.516Z,61.01
2018-07-30T00:06:24.885Z,61.30
2018-07-30T00:07:24.775Z,60.82
2018-07-30T00:09:17.642Z,60.72
2018-07-30T00:10:17.529Z,61.01
2018-07-30T00:12:10.400Z,60.82
2018-07-30T00:13:10.303Z,61.21
2018-07-30T00:15:03.147Z,61.30
2018-07-30T00:16:03.033Z,61.95
2018-07-30T00:17:55.880Z,61.85
2018-07-30T00:18:55.785Z,61.56
2018-07-30T00:20:48.609Z,62.14
2018-07-30T00:21:48.522Z,61.79
2018-07-30T00:23:41.377Z,61.40
2018-07-30T00:24:41.270Z,61.18
2018-07-30T00:26:34.123Z,61.27
2018-07-30T00:27:34.025Z,61.08
2018-07-30T00:29:26.916Z,60.82
2018-07-30T00:30:26.781Z,60.91
2018-07-30T00:32:19.655Z,61.11
2018-07-30T00:33:19.525Z,61.01
2018-07-30T00:35:12.805Z,61.56
2018-07-30T00:36:12.683Z,61.40
2018-07-30T00:38:05.554Z,61.27
2018-07-30T00:39:05.439Z,61.56
2018-07-30T00:40:58.264Z,62.14
2018-07-30T00:41:58.188Z,62.24
2018-07-30T00:43:51.034Z,62.43
2018-07-30T00:44:50.958Z,62.43
2018-07-30T00:46:44.180Z,62.34
2018-07-30T00:47:44.091Z,62.11
2018-07-30T00:49:36.962Z,62.63
2018-07-30T00:50:36.906Z,62.24
2018-07-30T00:52:29.898Z,62.34
2018-07-30T00:53:29.825Z,62.34
2018-07-30T00:55:22.671Z,62.43
2018-07-30T00:56:22.572Z,62.43
2018-07-30T00:58:15.896Z,62.04
2018-07-30T00:59:15.803Z,62.04
2018-07-30T01:01:08.694Z,62.24
2018-07-30T01:02:08.555Z,62.04
2018-07-30T01:04:01.388Z,62.92
2018-07-30T01:05:01.305Z,62.82
2018-07-30T01:06:54.743Z,62.59
2018-07-30T01:07:54.064Z,62.50
2018-07-30T01:09:47.305Z,62.79
2018-07-30T01:10:47.207Z,62.98
2018-07-30T01:12:40.167Z,62.69
2018-07-30T01:13:40.082Z,62.59
2018-07-30T01:15:32.910Z,63.46
2018-07-30T01:16:32.811Z,62.69
2018-07-30T01:18:25.731Z,63.46
2018-07-30T01:19:25.563Z,63.08
2018-07-30T01:21:18.403Z,63.76
2018-07-30T01:22:18.317Z,63.95
2018-07-30T01:24:11.163Z,63.66
2018-07-30T01:25:11.062Z,63.95
2018-07-30T01:27:03.901Z,64.82
2018-07-30T01:28:03.841Z,64.72
2018-07-30T01:29:56.658Z,63.56
2018-07-30T01:30:56.558Z,63.56
2018-07-30T01:32:49.429Z,63.95
2018-07-30T01:33:49.306Z,63.46
2018-07-30T01:35:42.159Z,64.04
2018-07-30T01:36:42.060Z,63.76
2018-07-30T01:38:34.927Z,63.85
2018-07-30T01:39:34.835Z,64.14
2018-07-30T01:41:27.772Z,64.53
2018-07-30T01:42:27.560Z,64.72
2018-07-30T01:44:20.418Z,64.24
2018-07-30T01:45:20.399Z,63.95
2018-07-30T01:47:13.157Z,65.27
2018-07-30T01:48:13.080Z,65.47
2018-07-30T01:50:05.931Z,65.08
2018-07-30T01:51:05.813Z,64.50
2018-07-30T01:52:58.650Z,65.01
2018-07-30T01:53:58.563Z,65.66
2018-07-30T01:55:51.416Z,65.75
2018-07-30T01:56:51.316Z,66.05
2018-07-30T01:58:44.148Z,66.53
2018-07-30T01:59:44.054Z,66.14
2018-07-30T02:01:36.902Z,66.05
2018-07-30T02:02:36.801Z,66.82
2018-07-30T02:04:29.646Z,67.49
2018-07-30T02:05:29.565Z,66.59
2018-07-30T02:07:22.818Z,67.94
2018-07-30T02:08:22.718Z,67.36
2018-07-30T02:10:15.571Z,67.56
2018-07-30T02:11:15.472Z,67.66
2018-07-30T02:13:08.293Z,68.52
2018-07-30T02:14:08.260Z,68.43
2018-07-30T02:16:01.103Z,68.24
2018-07-30T02:17:00.978Z,69.20
2018-07-30T02:18:53.798Z,69.20
2018-07-30T02:19:53.716Z,70.07
2018-07-30T02:21:46.591Z,69.74
2018-07-30T02:22:46.452Z,70.42
2018-07-30T02:24:39.328Z,70.72
2018-07-30T02:25:39.216Z,70.72
2018-07-30T02:27:32.092Z,71.20
2018-07-30T02:28:31.962Z,71.20
2018-07-30T02:30:24.848Z,71.88
2018-07-30T02:31:24.939Z,71.20
2018-07-30T02:33:17.594Z,70.81
2018-07-30T02:34:17.562Z,71.39
2018-07-30T02:36:10.324Z,69.84
2018-07-30T02:37:10.231Z,69.17
2018-07-30T02:39:03.069Z,69.40
2018-07-30T02:40:02.962Z,68.33
2018-07-30T02:41:55.877Z,68.33
2018-07-30T02:42:55.734Z,68.33
2018-07-30T02:44:48.572Z,67.94
2018-07-30T02:45:48.456Z,68.43
2018-07-30T02:47:41.354Z,67.94
2018-07-30T02:48:41.218Z,68.52
2018-07-30T02:50:34.061Z,67.75
2018-07-30T02:51:33.989Z,68.24
2018-07-30T02:53:26.806Z,68.33
2018-07-30T02:54:26.711Z,68.33
2018-07-30T02:56:19.540Z,69.36
2018-07-30T02:57:19.448Z,69.17
2018-07-30T02:59:12.315Z,68.98
2018-07-30T03:00:12.214Z,69.17
2018-07-30T03:02:05.077Z,70.42
2018-07-30T03:03:04.969Z,69.94
2018-07-30T03:04:57.842Z,70.62
2018-07-30T03:05:57.710Z,70.62
2018-07-30T03:07:50.573Z,70.52
2018-07-30T03:08:50.466Z,70.72
2018-07-30T03:10:43.307Z,71.30
2018-07-30T03:11:43.211Z,71.48
2018-07-30T03:13:36.058Z,72.74
2018-07-30T03:14:35.957Z,72.52
2018-07-30T03:16:28.809Z,73.58
2018-07-30T03:17:28.721Z,73.48
2018-07-30T03:19:21.562Z,73.67
2018-07-30T03:20:21.454Z,73.28
2018-07-30T03:22:14.338Z,74.16
2018-07-30T03:23:14.204Z,74.16
2018-07-30T03:25:07.038Z,75.31
2018-07-30T03:26:06.947Z,74.83
2018-07-30T03:28:00.335Z,75.51
2018-07-30T03:29:00.153Z,76.43
2018-07-30T03:30:52.977Z,76.92
2018-07-30T03:31:52.869Z,77.88
2018-07-30T03:33:45.723Z,78.94
2018-07-30T03:34:45.610Z,79.04
2018-07-30T03:36:38.644Z,80.30
2018-07-30T03:37:38.388Z,81.45
2018-07-30T03:39:31.199Z,82.09
2018-07-30T03:40:31.117Z,82.09
2018-07-30T03:42:24.561Z,82.76
2018-07-30T03:43:24.375Z,83.34
2018-07-30T03:45:17.251Z,83.01
2018-07-30T03:46:17.158Z,84.36
2018-07-30T03:48:09.974Z,84.75
2018-07-30T03:49:09.888Z,84.46
2018-07-30T03:51:02.823Z,84.84
2018-07-30T03:52:02.622Z,84.75
2018-07-30T03:53:55.527Z,85.81
2018-07-30T03:54:55.370Z,86.44
2018-07-30T03:56:48.232Z,86.44
2018-07-30T03:57:48.120Z,86.92
2018-07-30T03:59:40.984Z,86.44
2018-07-30T04:00:40.903Z,87.60
2018-07-30T04:02:33.742Z,87.30
2018-07-30T04:03:33.617Z,87.30
2018-07-30T04:05:26.469Z,87.30
2018-07-30T04:06:26.387Z,87.88
2018-07-30T04:08:19.213Z,87.88
2018-07-30T04:09:19.126Z,88.85
2018-07-30T04:11:11.978Z,88.85
2018-07-30T04:12:11.867Z,88.75
2018-07-30T04:14:04.736Z,88.85
2018-07-30T04:15:04.626Z,89.23
2018-07-30T04:16:57.470Z,89.67
2018-07-30T04:17:57.370Z,89.72
2018-07-30T04:19:50.215Z,89.29
2018-07-30T04:20:50.124Z,90.16
2018-07-30T04:22:43.370Z,90.34
2018-07-30T04:23:43.273Z,90.83
2018-07-30T04:25:36.234Z,90.97
2018-07-30T04:26:36.123Z,91.31
2018-07-30T04:28:29.067Z,91.50
2018-07-30T04:29:28.989Z,91.89
2018-07-30T04:31:21.879Z,92.18
2018-07-30T04:32:21.741Z,92.27
2018-07-30T04:34:14.642Z,92.66
2018-07-30T04:35:14.488Z,92.76
2018-07-30T04:37:07.325Z,94.10
2018-07-30T04:38:07.226Z,93.72
2018-07-30T04:40:00.115Z,92.56
2018-07-30T04:40:59.975Z,93.81
2018-07-30T04:42:53.232Z,94.01
2018-07-30T04:43:53.274Z,94.29
2018-07-30T04:45:46.029Z,95.36
2018-07-30T04:46:45.879Z,94.39
2018-07-30T04:48:38.765Z,95.07
2018-07-30T04:49:38.632Z,95.64
2018-07-30T04:51:31.481Z,96.12
2018-07-30T04:52:31.400Z,96.42
2018-07-30T04:54:24.233Z,95.07
2018-07-30T04:55:24.128Z,96.80
2018-07-30T04:57:16.969Z,96.51
2018-07-30T04:58:16.877Z,96.89
2018-07-30T05:00:09.747Z,97.76
2018-07-30T05:01:09.631Z,98.24
2018-07-30T05:03:02.485Z,98.63
2018-07-30T05:04:02.385Z,99.11
2018-07-30T05:05:55.236Z,99.30
2018-07-30T05:06:55.134Z,99.11
2018-07-30T05:08:47.998Z,98.82
2018-07-30T05:09:47.884Z,99.98
2018-07-30T05:11:40.719Z,99.79
2018-07-30T05:12:40.631Z,99.99
2018-07-30T05:14:33.481Z,99.69
2018-07-30T05:15:33.379Z,99.79
2018-07-30T05:17:26.216Z,98.97
2018-07-30T05:18:26.130Z,99.45
2018-07-30T05:20:18.982Z,99.93
2018-07-30T05:21:18.884Z,99.99
2018-07-30T05:23:11.731Z,98.29
2018-07-30T05:24:11.632Z,98.29
2018-07-30T05:26:04.501Z,99.99
2018-07-30T05:27:04.370Z,99.93
2018-07-30T05:28:57.255Z,99.02
2018-07-30T05:29:57.150Z,99.21
2018-07-30T05:31:50.999Z,98.92
2018-07-30T05:32:49.908Z,98.63
2018-07-30T05:34:42.734Z,98.54
2018-07-30T05:35:42.635Z,97.33
2018-07-30T05:37:35.581Z,96.08
2018-07-30T05:38:35.387Z,95.31
2018-07-30T05:40:28.226Z,93.47
2018-07-30T05:41:28.131Z,92.60
2018-07-30T05:43:20.961Z,93.04
2018-07-30T05:44:20.893Z,91.59
2018-07-30T05:46:13.739Z,90.53
2018-07-30T05:47:13.628Z,90.53
2018-07-30T05:49:06.481Z,87.53
2018-07-30T05:50:06.382Z,86.86
2018-07-30T05:51:59.210Z,87.53
2018-07-30T05:52:59.129Z,86.22
2018-07-30T05:54:51.974Z,86.03
2018-07-30T05:55:51.876Z,85.16
2018-07-30T05:57:44.728Z,83.81
2018-07-30T05:58:44.634Z,83.08
2018-07-30T06:00:37.491Z,84.43
2018-07-30T06:01:37.368Z,83.85
2018-07-30T06:03:30.214Z,82.60
2018-07-30T06:04:30.131Z,82.69
2018-07-30T06:06:22.973Z,81.57
2018-07-30T06:07:22.876Z,81.29
2018-07-30T06:09:16.651Z,80.03
2018-07-30T06:10:16.547Z,79.00
2018-07-30T06:12:09.417Z,77.11
2018-07-30T06:13:09.302Z,76.91
2018-07-30T06:15:02.139Z,73.24
2018-07-30T06:16:02.054Z,72.08
2018-07-30T06:17:54.905Z,72.69
2018-07-30T06:18:54.793Z,73.08
2018-07-30T06:20:47.660Z,72.24
2018-07-30T06:21:47.558Z,73.02
2018-07-30T06:23:40.384Z,72.69
2018-07-30T06:24:40.292Z,74.08
2018-07-30T06:26:33.252Z,73.41
2018-07-30T06:27:33.056Z,73.11
2018-07-30T06:29:25.895Z,71.76
2018-07-30T06:30:25.796Z,72.44
2018-07-30T06:32:18.669Z,73.31
2018-07-30T06:33:18.552Z,71.56
2018-07-30T06:35:11.393Z,70.50
2018-07-30T06:36:11.291Z,70.79
2018-07-30T06:38:06.645Z,70.11
2018-07-30T06:39:06.166Z,69.73
2018-07-30T06:40:59.565Z,69.18
2018-07-30T06:41:59.466Z,69.27
2018-07-30T06:43:54.080Z,68.99
2018-07-30T06:44:54.061Z,69.08
2018-07-30T06:46:47.331Z,68.50
2018-07-30T06:47:47.250Z,67.72
2018-07-30T06:49:40.580Z,67.14
2018-07-30T06:50:40.500Z,66.99
2018-07-30T06:52:33.331Z,67.37
2018-07-30T06:53:33.209Z,66.50
2018-07-30T06:55:26.064Z,67.37
2018-07-30T06:56:25.965Z,66.60
2018-07-30T06:58:18.839Z,66.34
2018-07-30T06:59:18.709Z,67.60
2018-07-30T07:01:11.549Z,66.14
2018-07-30T07:02:11.474Z,65.95
2018-07-30T07:04:04.321Z,65.11
2018-07-30T07:05:04.210Z,66.47
2018-07-30T07:06:57.589Z,65.20
2018-07-30T07:07:56.971Z,65.24
2018-07-30T07:09:49.799Z,64.26
2018-07-30T07:10:49.718Z,62.42
2018-07-30T07:12:42.558Z,60.80
2018-07-30T07:13:42.464Z,60.12
2018-07-30T07:15:35.293Z,59.25
2018-07-30T07:16:35.253Z,58.86
2018-07-30T07:18:28.083Z,57.53
2018-07-30T07:19:27.956Z,57.33
2018-07-30T07:21:20.852Z,55.39
2018-07-30T07:22:20.730Z,55.13
2018-07-30T07:24:13.571Z,56.10
2018-07-30T07:25:13.458Z,57.17
2018-07-30T07:27:06.384Z,55.80
2018-07-30T07:28:06.229Z,56.10
2018-07-30T07:29:59.060Z,54.47
2018-07-30T07:30:58.967Z,55.15
2018-07-30T07:32:51.875Z,53.01
2018-07-30T07:33:51.730Z,53.01
2018-07-30T07:35:44.556Z,54.47
2018-07-30T07:36:44.472Z,54.99
2018-07-30T07:38:37.878Z,54.21
2018-07-30T07:39:37.766Z,54.21
2018-07-30T07:41:30.594Z,53.55
2018-07-30T07:42:30.495Z,54.43
2018-07-30T07:44:23.318Z,52.36
2018-07-30T07:45:23.223Z,50.99
2018-07-30T07:47:16.069Z,52.36
2018-07-30T07:48:15.987Z,52.06
2018-07-30T07:50:08.868Z,51.77
2018-07-30T07:51:08.758Z,52.26
2018-07-30T07:53:01.572Z,53.55
2018-07-30T07:54:01.471Z,53.16
2018-07-30T07:55:54.321Z,51.99
2018-07-30T07:56:54.228Z,52.09
2018-07-30T07:58:47.055Z,52.97
2018-07-30T07:59:46.983Z,54.13
2018-07-30T08:01:39.857Z,52.09
2018-07-30T08:02:39.745Z,52.60
2018-07-30T08:04:32.587Z,52.22
2018-07-30T08:05:32.469Z,52.12
2018-07-30T08:07:25.361Z,51.80
2018-07-30T08:08:25.243Z,52.28
2018-07-30T08:10:18.081Z,52.38
2018-07-30T08:11:17.987Z,52.19
2018-07-30T08:13:10.801Z,52.28
2018-07-30T08:14:10.729Z,52.19
2018-07-30T08:16:03.570Z,52.58
2018-07-30T08:17:03.477Z,51.70
2018-07-30T08:18:56.327Z,51.90
2018-07-30T08:19:56.213Z,51.90
2018-07-30T08:21:49.067Z,52.38
2018-07-30T08:22:48.964Z,52.19
2018-07-30T08:24:41.796Z,52.28
2018-07-30T08:25:41.711Z,54.23
2018-07-30T08:27:34.567Z,56.27
2018-07-30T08:28:34.503Z,55.60
2018-07-30T08:30:27.357Z,55.11
2018-07-30T08:31:27.220Z,55.60
2018-07-30T08:33:20.582Z,56.57
2018-07-30T08:34:20.485Z,55.89
2018-07-30T08:36:13.307Z,55.69
2018-07-30T08:37:13.299Z,56.86
2018-07-30T08:39:06.084Z,56.47
2018-07-30T08:40:06.017Z,56.67
2018-07-30T08:41:58.861Z,57.81
2018-07-30T08:42:58.729Z,58.71
2018-07-30T08:44:51.562Z,59.46
2018-07-30T08:45:51.475Z,59.78
2018-07-30T08:47:44.330Z,59.20
2018-07-30T08:48:44.238Z,59.39
2018-07-30T08:50:37.061Z,58.81
2018-07-30T08:51:36.974Z,58.81
2018-07-30T08:53:29.848Z,59.62
2018-07-30T08:54:29.720Z,59.13
2018-07-30T08:56:22.594Z,59.13
2018-07-30T08:57:22.469Z,58.06
2018-07-30T08:59:15.361Z,57.76
2018-07-30T09:00:15.239Z,57.76
2018-07-30T09:02:08.051Z,58.74
2018-07-30T09:03:07.988Z,57.54
2018-07-30T09:05:00.840Z,58.42
2018-07-30T09:06:00.715Z,58.61
2018-07-30T09:07:53.553Z,59.72
2018-07-30T09:08:53.480Z,59.62
2018-07-30T09:10:46.726Z,58.15
2018-07-30T09:11:46.625Z,57.31
2018-07-30T09:13:39.875Z,56.04
2018-07-30T09:14:39.807Z,56.26
2018-07-30T09:16:32.715Z,56.16
2018-07-30T09:17:32.542Z,56.38
2018-07-30T09:19:25.400Z,55.12
2018-07-30T09:20:25.287Z,54.46
2018-07-30T09:22:18.144Z,52.61
2018-07-30T09:23:18.038Z,52.80
2018-07-30T09:25:10.901Z,53.39
2018-07-30T09:26:10.789Z,53.29
2018-07-30T09:28:03.628Z,52.61
2018-07-30T09:29:03.538Z,52.90
2018-07-30T09:30:56.388Z,52.68
2018-07-30T09:31:56.325Z,53.66
2018-07-30T09:33:49.122Z,53.29
2018-07-30T09:34:49.037Z,52.34
2018-07-30T09:36:41.887Z,52.64
2018-07-30T09:37:41.805Z,51.95
2018-07-30T09:39:39.438Z,50.68
2018-07-30T09:40:38.058Z,50.20
2018-07-30T09:42:30.082Z,51.17
2018-07-30T09:43:30.023Z,51.17
2018-07-30T09:45:22.801Z,50.16
2018-07-30T09:46:23.045Z,50.36
2018-07-30T09:48:15.556Z,51.04
2018-07-30T09:49:15.445Z,52.39
2018-07-30T09:51:08.311Z,52.29
2018-07-30T09:52:08.204Z,52.97
2018-07-30T09:54:01.046Z,53.39
2018-07-30T09:55:00.945Z,52.34
2018-07-30T09:56:53.828Z,51.56
2018-07-30T09:57:53.692Z,51.86
2018-07-30T09:59:46.533Z,50.81
2018-07-30T10:00:46.447Z,51.78
2018-07-30T10:02:39.302Z,50.22
2018-07-30T10:03:39.199Z,50.12
2018-07-30T10:05:32.043Z,50.32
2018-07-30T10:06:31.960Z,50.05
2018-07-30T10:08:24.794Z,49.38
2018-07-30T10:09:24.699Z,48.70
2018-07-30T10:11:17.529Z,47.16
2018-07-30T10:12:17.442Z,46.18
2018-07-30T10:14:10.300Z,46.28
2018-07-30T10:15:10.204Z,46.11
2018-07-30T10:17:03.140Z,45.23
2018-07-30T10:18:03.141Z,45.42
2018-07-30T10:19:56.400Z,44.15
2018-07-30T10:20:56.316Z,44.44
2018-07-30T10:22:49.286Z,45.34
2018-07-30T10:23:49.188Z,46.03
2018-07-30T10:25:42.015Z,44.98
2018-07-30T10:26:41.917Z,44.31
2018-07-30T10:28:34.759Z,43.94
2018-07-30T10:29:34.659Z,42.96
2018-07-30T10:31:27.497Z,43.33
2018-07-30T10:32:27.412Z,42.25
2018-07-30T10:34:20.843Z,43.04
2018-07-30T10:35:20.282Z,42.55
2018-07-30T10:37:13.530Z,42.52
2018-07-30T10:38:13.565Z,42.45
2018-07-30T10:40:06.796Z,42.45
2018-07-30T10:41:06.685Z,41.76
2018-07-30T10:43:00.040Z,42.43
2018-07-30T10:43:59.944Z,42.25
2018-07-30T10:45:52.804Z,42.91
2018-07-30T10:46:52.713Z,43.82
2018-07-30T10:48:45.553Z,42.37
2018-07-30T10:49:45.440Z,41.11
2018-07-30T10:51:38.307Z,40.45
2018-07-30T10:52:38.204Z,38.88
2018-07-30T10:54:31.039Z,38.78
2018-07-30T10:55:30.940Z,39.17
2018-07-30T10:57:24.299Z,38.76
2018-07-30T10:58:24.212Z,39.54
2018-07-30T11:00:17.056Z,40.01
2018-07-30T11:01:16.963Z,39.35
2018-07-30T11:03:09.812Z,39.06
2018-07-30T11:04:09.708Z,39.15
2018-07-30T11:06:02.570Z,39.76
2018-07-30T11:07:02.464Z,40.96
2018-07-30T11:08:55.301Z,38.60
2018-07-30T11:09:55.228Z,39.98
2018-07-30T11:11:48.051Z,38.85
2018-07-30T11:12:47.961Z,39.03
2018-07-30T11:14:40.820Z,39.61
2018-07-30T11:15:40.702Z,40.19
2018-07-30T11:17:33.635Z,39.88
2018-07-30T11:18:33.553Z,40.55
2018-07-30T11:20:26.406Z,41.42
2018-07-30T11:21:26.324Z,41.52
2018-07-30T11:23:19.157Z,42.29
2018-07-30T11:24:19.083Z,41.11
2018-07-30T11:26:11.920Z,41.49
2018-07-30T11:27:11.806Z,41.99
2018-07-30T11:29:04.644Z,44.13
2018-07-30T11:30:04.560Z,44.10
2018-07-30T11:31:57.461Z,43.52
2018-07-30T11:32:57.300Z,43.81
2018-07-30T11:34:50.742Z,43.05
2018-07-30T11:35:50.096Z,44.03
2018-07-30T11:37:42.889Z,43.84
2018-07-30T11:38:42.807Z,43.44
2018-07-30T11:40:35.661Z,43.34
2018-07-30T11:41:35.561Z,43.44
2018-07-30T11:43:28.407Z,42.85
2018-07-30T11:44:28.320Z,43.54
2018-07-30T11:46:21.150Z,42.85
2018-07-30T11:47:21.070Z,43.54
2018-07-30T11:49:13.992Z,44.73
2018-07-30T11:50:13.935Z,43.29
2018-07-30T11:52:07.869Z,43.80
2018-07-30T11:53:07.771Z,43.23
2018-07-30T11:55:00.618Z,41.64
2018-07-30T11:56:00.532Z,43.33
2018-07-30T11:57:53.454Z,41.29
2018-07-30T11:58:53.372Z,40.61
2018-07-30T12:00:46.245Z,41.27
2018-07-30T12:01:46.156Z,41.88
2018-07-30T12:03:39.059Z,40.70
2018-07-30T12:04:38.978Z,40.90
2018-07-30T12:06:31.946Z,41.56
2018-07-30T12:07:31.851Z,40.88
2018-07-30T12:09:24.682Z,41.64
2018-07-30T12:10:24.581Z,41.82
2018-07-30T12:12:17.426Z,41.33
2018-07-30T12:13:17.326Z,41.42
2018-07-30T12:15:10.280Z,41.62
2018-07-30T12:16:10.190Z,41.52
2018-07-30T12:18:03.111Z,40.39
2018-07-30T12:19:03.031Z,40.76
2018-07-30T12:20:55.909Z,39.33
2018-07-30T12:21:55.876Z,38.93
2018-07-30T12:23:48.729Z,39.43
2018-07-30T12:24:48.631Z,39.72
2018-07-30T12:26:41.478Z,39.01
2018-07-30T12:27:41.382Z,40.08
2018-07-30T12:29:34.338Z,41.52
2018-07-30T12:30:34.287Z,41.33
2018-07-30T12:32:27.082Z,40.74
2018-07-30T12:33:27.016Z,41.13
2018-07-30T12:35:19.883Z,41.52
2018-07-30T12:36:19.738Z,42.33
2018-07-30T12:38:13.104Z,40.95
2018-07-30T12:39:13.016Z,40.45
2018-07-30T12:41:06.797Z,41.42
2018-07-30T12:42:06.672Z,41.21
2018-07-30T12:43:59.521Z,42.46
2018-07-30T12:44:59.519Z,42.17
2018-07-30T12:46:52.280Z,42.38
2018-07-30T12:47:52.171Z,41.50
2018-07-30T12:49:45.581Z,42.11
2018-07-30T12:50:45.461Z,41.37
2018-07-30T12:52:39.295Z,40.31
2018-07-30T12:53:39.224Z,39.62
2018-07-30T12:55:32.718Z,40.01
2018-07-30T12:56:32.560Z,40.11
2018-07-30T12:58:25.533Z,38.93
2018-07-30T12:59:25.413Z,38.74
2018-07-30T13:01:18.362Z,38.74
2018-07-30T13:02:18.268Z,39.54
2018-07-30T13:04:11.235Z,37.88
2018-07-30T13:05:11.134Z,37.58
2018-07-30T13:07:04.990Z,38.37
2018-07-30T13:08:04.895Z,38.17
2018-07-30T13:09:58.293Z,37.58
2018-07-30T13:10:57.776Z,37.09
2018-07-30T13:12:50.688Z,37.21
2018-07-30T13:13:50.744Z,36.72
2018-07-30T13:15:43.549Z,37.52
2018-07-30T13:16:43.445Z,36.63
2018-07-30T13:18:36.386Z,36.34
2018-07-30T13:19:36.315Z,36.54
2018-07-30T13:21:29.247Z,35.38
2018-07-30T13:22:29.152Z,36.24
2018-07-30T13:24:22.111Z,35.57
2018-07-30T13:25:22.001Z,35.57
2018-07-30T13:27:14.880Z,35.16
2018-07-30T13:28:14.852Z,35.46
2018-07-30T13:30:07.616Z,37.32
2018-07-30T13:31:07.503Z,36.44
2018-07-30T13:33:00.339Z,36.44
2018-07-30T13:34:00.264Z,35.36
2018-07-30T13:35:53.184Z,36.44
2018-07-30T13:36:53.163Z,35.55
2018-07-30T13:38:46.353Z,36.93
2018-07-30T13:39:46.283Z,35.46
2018-07-30T13:41:39.146Z,35.54
2018-07-30T13:42:39.049Z,35.91
2018-07-30T13:44:32.453Z,35.50
2018-07-30T13:45:32.290Z,35.50
2018-07-30T13:47:25.233Z,37.15
2018-07-30T13:48:25.128Z,37.45
2018-07-30T13:50:18.071Z,37.45
2018-07-30T13:51:17.980Z,36.08
2018-07-30T13:53:11.045Z,36.27
2018-07-30T13:54:10.994Z,36.57
2018-07-30T13:56:03.868Z,36.86
2018-07-30T13:57:03.798Z,36.57
2018-07-30T13:58:56.746Z,35.57
2018-07-30T13:59:56.683Z,35.78
2018-07-30T14:01:49.501Z,36.16
2018-07-30T14:02:49.390Z,37.84
2018-07-30T14:04:42.398Z,39.51
2018-07-30T14:05:42.247Z,39.31
2018-07-30T14:07:35.202Z,37.07
2018-07-30T14:08:35.096Z,36.47
2018-07-30T14:10:28.982Z,39.53
2018-07-30T14:11:28.875Z,39.92
2018-07-30T14:13:21.833Z,40.19
2018-07-30T14:14:21.717Z,39.72
2018-07-30T14:16:15.074Z,39.62
2018-07-30T14:17:14.996Z,39.82
2018-07-30T14:19:07.930Z,41.19
2018-07-30T14:20:07.900Z,40.90
2018-07-30T14:22:00.764Z,39.54
2018-07-30T14:23:00.691Z,39.06
2018-07-30T14:24:53.629Z,36.80
2018-07-30T14:25:53.544Z,36.99
2018-07-30T14:27:46.480Z,37.09
2018-07-30T14:28:46.385Z,35.89
2018-07-30T14:30:39.746Z,36.39
2018-07-30T14:31:39.655Z,36.58
2018-07-30T14:33:32.613Z,35.80
2018-07-30T14:34:32.592Z,35.70
2018-07-30T14:36:25.360Z,38.25
2018-07-30T14:37:25.257Z,37.29
2018-07-30T14:39:18.167Z,36.22
2018-07-30T14:40:18.033Z,36.22
2018-07-30T14:42:10.831Z,35.74
2018-07-30T14:43:10.865Z,35.55
2018-07-30T14:45:03.700Z,36.38
2018-07-30T14:46:03.703Z,36.40
2018-07-30T14:47:56.465Z,33.67
2018-07-30T14:48:56.416Z,33.00
2018-07-30T14:50:49.298Z,31.24
2018-07-30T14:51:49.333Z,32.42
2018-07-30T14:53:43.794Z,33.80
2018-07-30T14:54:43.917Z,33.69
2018-07-30T14:56:36.637Z,33.38
2018-07-30T14:57:36.556Z,32.00
2018-07-30T14:59:29.501Z,31.67
2018-07-30T15:00:29.431Z,31.56
2018-07-30T15:02:22.353Z,31.76
2018-07-30T15:03:22.250Z,32.54
2018-07-30T15:05:15.195Z,34.00
2018-07-30T15:06:15.139Z,35.28
2018-07-30T15:08:08.041Z,33.20
2018-07-30T15:09:07.966Z,33.79
2018-07-30T15:11:00.910Z,34.58
2018-07-30T15:12:00.801Z,36.34
2018-07-30T15:13:53.667Z,35.54
2018-07-30T15:14:53.555Z,35.74
2018-07-30T15:16:46.502Z,35.44
2018-07-30T15:17:46.403Z,34.85
2018-07-30T15:19:39.337Z,34.83
2018-07-30T15:20:39.254Z,35.52
2018-07-30T15:22:32.313Z,36.11
2018-07-30T15:23:32.209Z,38.27
2018-07-30T15:25:25.153Z,39.06
2018-07-30T15:26:25.084Z,39.94
2018-07-30T15:28:18.014Z,39.03
2018-07-30T15:29:17.928Z,38.25
2018-07-30T15:31:10.872Z,40.51
2018-07-30T15:32:10.766Z,38.45
2018-07-30T15:34:03.711Z,37.96
2018-07-30T15:35:03.628Z,40.41
2018-07-30T15:36:56.481Z,40.11
2018-07-30T15:37:56.389Z,39.03
2018-07-30T15:39:49.213Z,38.45
2018-07-30T15:40:49.121Z,38.45
2018-07-30T15:42:41.990Z,39.23
2018-07-30T15:43:41.868Z,37.78
2018-07-30T15:45:34.726Z,36.32
2018-07-30T15:46:34.619Z,33.98
2018-07-30T15:48:27.476Z,33.95
2018-07-30T15:49:27.373Z,32.52
2018-07-30T15:51:20.233Z,30.39
2018-07-30T15:52:20.188Z,28.42
2018-07-30T15:54:13.049Z,28.93
2018-07-30T15:55:13.024Z,28.15
2018-07-30T15:57:05.917Z,26.46
2018-07-30T15:58:05.823Z,26.28
2018-07-30T15:59:58.775Z,26.35
2018-07-30T16:00:58.730Z,27.15
2018-07-30T16:02:51.744Z,28.09
2018-07-30T16:03:51.638Z,28.49
2018-07-30T16:05:44.600Z,28.14
2018-07-30T16:06:44.482Z,26.56
2018-07-30T16:08:37.453Z,26.38
2018-07-30T16:09:37.329Z,26.40
2018-07-30T16:11:30.272Z,26.76
2018-07-30T16:12:30.205Z,28.31
2018-07-30T16:14:23.134Z,29.44
2018-07-30T16:15:23.036Z,29.91
2018-07-30T16:17:16.422Z,30.38
2018-07-30T16:18:16.333Z,31.56
2018-07-30T16:20:09.374Z,31.34
2018-07-30T16:21:09.258Z,31.44
2018-07-30T16:23:02.207Z,32.80
2018-07-30T16:24:02.129Z,33.28
2018-07-30T16:25:55.056Z,33.56
2018-07-30T16:26:54.957Z,33.28
2018-07-30T16:28:47.900Z,34.03
2018-07-30T16:29:47.820Z,35.00
2018-07-30T16:31:40.741Z,36.15
2018-07-30T16:32:40.675Z,35.54
2018-07-30T16:34:33.552Z,36.29
2018-07-30T16:35:33.415Z,36.18
2018-07-30T16:37:29.959Z,37.82
2018-07-30T16:38:26.705Z,38.51
2018-07-30T16:40:19.554Z,39.00
2018-07-30T16:41:19.424Z,39.19
2018-07-30T16:43:12.278Z,38.78
2018-07-30T16:44:12.353Z,39.86
2018-07-30T16:46:05.131Z,40.84
2018-07-30T16:47:05.107Z,40.33
2018-07-30T16:48:57.871Z,41.13
2018-07-30T16:49:57.828Z,41.72
2018-07-30T16:51:50.710Z,42.41
2018-07-30T16:52:50.636Z,43.98
2018-07-30T16:54:43.486Z,39.51
2018-07-30T16:55:43.370Z,38.29
2018-07-30T16:57:36.211Z,34.64
2018-07-30T16:58:36.884Z,34.03
2018-07-30T17:00:28.963Z,34.70
2018-07-30T17:01:28.889Z,35.28
2018-07-30T17:03:21.714Z,36.62
2018-07-30T17:04:22.046Z,37.68
2018-07-30T17:06:15.466Z,38.27
2018-07-30T17:07:15.393Z,37.46
2018-07-30T17:09:08.239Z,37.96
2018-07-30T17:10:08.144Z,40.61
2018-07-30T17:12:00.985Z,40.48
2018-07-30T17:13:00.905Z,41.15
2018-07-30T17:14:53.970Z,40.31
2018-07-30T17:15:53.643Z,39.92
2018-07-30T17:17:46.524Z,41.09
2018-07-30T17:18:46.394Z,42.35
2018-07-30T17:20:39.236Z,44.48
2018-07-30T17:21:39.147Z,44.19
2018-07-30T17:23:31.986Z,44.66
2018-07-30T17:24:31.936Z,44.56
2018-07-30T17:26:24.726Z,44.73
2018-07-30T17:27:24.638Z,46.40
2018-07-30T17:29:17.484Z,49.11
2018-07-30T17:30:17.396Z,49.90
2018-07-30T17:32:10.218Z,48.24
2018-07-30T17:33:10.136Z,49.11
2018-07-30T17:35:03.014Z,48.26
2018-07-30T17:36:02.896Z,47.65
2018-07-30T17:37:55.799Z,48.72
2018-07-30T17:38:55.703Z,48.92
2018-07-30T17:40:48.821Z,48.53
2018-07-30T17:41:48.752Z,47.63
2018-07-30T17:43:41.269Z,46.86
2018-07-30T17:44:41.453Z,47.92
2018-07-30T17:46:34.532Z,49.38
2018-07-30T17:47:34.422Z,50.07
2018-07-30T17:49:27.269Z,50.54
2018-07-30T17:50:27.147Z,51.05
2018-07-30T17:52:20.010Z,51.44
2018-07-30T17:53:19.903Z,51.73
2018-07-30T17:55:12.755Z,52.39
2018-07-30T17:56:12.649Z,53.76
2018-07-30T17:58:05.501Z,53.96
2018-07-30T17:59:05.413Z,53.23
2018-07-30T18:00:58.227Z,50.85
2018-07-30T18:01:58.160Z,49.60
2018-07-30T18:03:51.010Z,48.80
2018-07-30T18:04:50.902Z,48.82
2018-07-30T18:06:43.729Z,47.55
2018-07-30T18:07:43.648Z,47.35
2018-07-30T18:09:36.504Z,47.62
2018-07-30T18:10:36.413Z,48.50
2018-07-30T18:12:29.232Z,48.48
2018-07-30T18:13:29.156Z,48.38
2018-07-30T18:15:21.991Z,49.90
2018-07-30T18:16:21.930Z,50.56
2018-07-30T18:18:14.752Z,51.12
2018-07-30T18:19:14.658Z,52.37
2018-07-30T18:21:07.477Z,53.32
2018-07-30T18:22:07.402Z,54.49
2018-07-30T18:24:00.319Z,54.66
2018-07-30T18:25:00.158Z,55.12
2018-07-30T18:26:52.982Z,56.29
2018-07-30T18:27:52.901Z,57.43
2018-07-30T18:29:45.756Z,57.24
2018-07-30T18:30:45.655Z,57.82
2018-07-30T18:32:38.489Z,58.28